Time;durP1;ratioP1;P1;durP2;ratioP2;P2;SDS_P1;SDS_P2;PMS_P1;PMS_P2;Temp;Humidity;BMP_temperature;BMP_pressure;BME280_temperature;BME280_humidity;BME280_pressure;Samples;Min_cycle;Max_cycle;Signal;HPM_P1;HPM_P2
2020/12/03 00:02:05;;;;;;;1999.90;999.90;;;4.50;99.90;;;;;;4977932;28;20254;-90
2020/12/03 00:04:57;;;;;;;1999.90;999.90;;;4.50;99.90;;;;;;4978072;28;20178;-90
2020/12/03 00:07:29;;;;;;;1999.90;999.90;;;4.50;99.90;;;;;;4978065;28;20622;-90
2020/12/03 00:09:58;;;;;;;1999.90;999.90;;;4.50;99.90;;;;;;4978482;28;20202;-90
2020/12/03 00:12:53;;;;;;;1999.90;999.90;;;4.60;99.90;;;;;;4977671;28;20570;-90
2020/12/03 00:15:51;;;;;;;1999.90;999.90;;;4.50;99.90;;;;;;4981108;28;20266;-89
2020/12/03 00:18:44;;;;;;;1999.90;999.90;;;4.60;99.90;;;;;;4918591;28;20267;-90
2020/12/03 00:21:39;;;;;;;;;;;;;;;;;;;;;
2020/12/03 00:24:23;;;;;;;1999.90;999.90;;;4.60;99.90;;;;;;4975791;28;20155;-89
2020/12/03 00:27:13;;;;;;;1999.90;999.90;;;4.60;99.90;;;;;;4958727;28;20182;-89
2020/12/03 00:29:40;;;;;;;1999.90;999.90;;;4.60;99.90;;;;;;4975394;28;20163;-89
2020/12/03 00:32:06;;;;;;;1999.90;999.90;;;4.60;99.90;;;;;;4975466;28;20186;-89
2020/12/03 00:34:43;;;;;;;1999.90;999.90;;;4.50;99.90;;;;;;4958717;28;20258;-89
2020/12/03 00:37:14;;;;;;;1999.90;999.90;;;4.50;99.90;;;;;;4975251;28;20674;-89
2020/12/03 00:39:55;;;;;;;1999.90;999.90;;;4.50;99.90;;;;;;4975432;28;20168;-89
2020/12/03 00:42:43;;;;;;;1999.90;999.90;;;4.60;99.90;;;;;;4975062;28;20192;-89
2020/12/03 00:45:10;;;;;;;1999.90;999.90;;;4.60;99.90;;;;;;4957673;28;20163;-89
2020/12/03 00:47:44;;;;;;;1999.90;999.90;;;4.60;99.90;;;;;;4974375;28;20242;-89
2020/12/03 00:50:26;;;;;;;1999.90;999.90;;;4.50;99.90;;;;;;4975594;28;20274;-89
2020/12/03 00:53:04;;;;;;;1999.90;999.90;;;4.50;99.90;;;;;;4957750;28;20186;-89
2020/12/03 00:55:31;;;;;;;1999.90;999.90;;;4.60;99.90;;;;;;4958596;28;20167;-89
2020/12/03 00:58:03;;;;;;;1999.90;999.90;;;4.60;99.90;;;;;;4957505;28;20175;-89
2020/12/03 01:00:38;;;;;;;1999.90;999.90;;;4.50;99.90;;;;;;4975111;28;20151;-89
2020/12/03 01:03:15;;;;;;;1999.90;999.90;;;4.50;99.90;;;;;;4974832;28;20167;-89
2020/12/03 01:05:44;;;;;;;1999.90;999.90;;;4.50;99.90;;;;;;4975001;28;20151;-89
2020/12/03 01:08:20;;;;;;;1999.90;999.90;;;4.50;99.90;;;;;;4973818;28;20559;-89
2020/12/03 01:10:46;;;;;;;1999.90;999.90;;;4.60;99.90;;;;;;4958037;28;20199;-89
2020/12/03 01:13:12;;;;;;;1999.90;999.90;;;4.60;99.90;;;;;;4957649;28;20532;-89
2020/12/03 01:15:43;;;;;;;1999.90;999.90;;;4.60;99.90;;;;;;4958931;28;20222;-89
2020/12/03 01:18:09;;;;;;;1999.90;999.90;;;4.60;99.90;;;;;;4974723;28;20564;-89
2020/12/03 01:20:36;;;;;;;1999.90;999.90;;;4.60;99.90;;;;;;4974755;28;20226;-89
2020/12/03 01:23:02;;;;;;;1999.90;999.90;;;4.50;99.90;;;;;;4974879;28;20163;-89
2020/12/03 01:25:30;;;;;;;1999.90;999.90;;;4.60;99.90;;;;;;5118654;23;20675;-79
2020/12/03 01:27:55;;;;;;;1999.90;999.90;;;4.60;99.90;;;;;;4957812;29;20200;-80
2020/12/03 01:30:22;;;;;;;1999.90;999.90;;;4.60;99.90;;;;;;4957896;29;20248;-79
2020/12/03 01:32:48;;;;;;;1999.90;999.90;;;4.50;99.90;;;;;;4940874;29;20168;-79
2020/12/03 01:35:16;;;;;;;1999.90;999.90;;;4.50;99.90;;;;;;4957577;29;20644;-79
2020/12/03 01:37:42;;;;;;;1999.90;999.90;;;4.50;99.90;;;;;;4957764;29;20531;-79
2020/12/03 01:40:11;;;;;;;1999.90;999.90;;;4.50;99.90;;;;;;4957531;29;20164;-80
2020/12/03 01:42:39;;;;;;;1999.90;999.90;;;4.50;99.90;;;;;;4940118;29;20418;-79
2020/12/03 01:45:42;;;;;;;1999.90;999.90;;;4.50;99.90;;;;;;4957395;29;20207;-79
2020/12/03 01:48:19;;;;;;;1999.90;999.90;;;4.60;99.90;;;;;;4957314;29;20172;-80
2020/12/03 01:50:44;;;;;;;1999.90;999.90;;;4.60;99.90;;;;;;4940190;29;20286;-79
2020/12/03 01:53:13;;;;;;;1999.90;999.90;;;4.60;99.90;;;;;;4958081;29;20195;-79
2020/12/03 01:55:38;;;;;;;1999.90;999.90;;;4.50;99.90;;;;;;4940380;29;20543;-80
2020/12/03 01:58:04;;;;;;;1999.90;999.90;;;4.60;99.90;;;;;;4957363;29;20160;-80
2020/12/03 02:00:30;;;;;;;1999.90;999.90;;;4.60;99.90;;;;;;4959517;28;20184;-80
2020/12/03 02:02:56;;;;;;;1999.90;999.90;;;4.60;99.90;;;;;;4961519;29;20267;-80
2020/12/03 02:05:29;;;;;;;1999.90;999.90;;;4.60;99.90;;;;;;4961499;29;20192;-80
2020/12/03 02:07:54;;;;;;;1999.90;999.90;;;4.70;99.90;;;;;;4961252;29;20403;-80
2020/12/03 02:10:22;;;;;;;1999.90;999.90;;;4.60;99.90;;;;;;4961325;29;20179;-80
2020/12/03 02:12:49;;;;;;;1999.90;999.90;;;4.70;99.90;;;;;;4943821;29;20168;-80
2020/12/03 02:15:17;;;;;;;1999.90;999.90;;;4.60;99.90;;;;;;4961240;29;20223;-80
2020/12/03 02:17:42;;;;;;;1999.90;999.90;;;4.70;99.90;;;;;;4960714;29;20191;-80
2020/12/03 02:20:12;;;;;;;1999.90;999.90;;;4.60;99.90;;;;;;4960858;29;20164;-80
2020/12/03 02:22:39;;;;;;;1999.90;999.90;;;4.70;99.90;;;;;;4960636;29;20644;-80
2020/12/03 02:25:06;;;;;;;1999.90;999.90;;;4.70;99.90;;;;;;4961000;29;20176;-80
2020/12/03 02:27:32;;;;;;;1999.90;999.90;;;4.70;99.90;;;;;;4960850;29;20232;-79
2020/12/03 02:29:58;;;;;;;1999.90;999.90;;;4.70;99.90;;;;;;4960908;29;20168;-80
2020/12/03 02:32:23;;;;;;;1999.90;999.90;;;4.60;99.90;;;;;;4960951;29;20486;-80
2020/12/03 02:34:49;;;;;;;1999.90;999.90;;;4.60;99.90;;;;;;4960540;29;20466;-80
2020/12/03 02:37:15;;;;;;;1999.90;999.90;;;4.60;99.90;;;;;;4960420;29;20183;-80
2020/12/03 02:39:41;;;;;;;1999.90;999.90;;;4.60;99.90;;;;;;4960666;29;20418;-80
2020/12/03 02:42:30;;;;;;;1999.90;999.90;;;4.60;99.90;;;;;;4960405;29;20172;-79
2020/12/03 02:44:56;;;;;;;1999.90;999.90;;;4.60;99.90;;;;;;4924879;29;20206;-79
2020/12/03 02:47:23;;;;;;;1999.90;999.90;;;4.60;99.90;;;;;;4960951;29;20172;-79
2020/12/03 02:50:20;;;;;;;1999.90;999.90;;;4.70;99.90;;;;;;4960702;29;20175;-79
2020/12/03 02:52:46;;;;;;;1999.90;999.90;;;4.60;99.90;;;;;;4925674;29;20553;-79
2020/12/03 02:55:12;;;;;;;1999.90;999.90;;;4.70;99.90;;;;;;4960692;29;20148;-79
2020/12/03 02:57:37;;;;;;;1999.90;999.90;;;4.80;99.90;;;;;;4960228;29;20252;-79
2020/12/03 03:00:04;;;;;;;1999.90;999.90;;;4.80;99.90;;;;;;4960299;29;20258;-79
2020/12/03 03:02:59;;;;;;;1999.90;999.90;;;4.80;99.90;;;;;;4960164;29;20337;-79
2020/12/03 03:05:24;;;;;;;1999.90;999.90;;;4.80;99.90;;;;;;4938283;28;20207;-79
2020/12/03 03:07:50;;;;;;;1999.90;999.90;;;4.80;99.90;;;;;;4960148;29;20531;-79
2020/12/03 03:10:16;;;;;;;1999.90;999.90;;;4.80;99.90;;;;;;4959583;28;20160;-79
2020/12/03 03:12:42;;;;;;;1999.90;999.90;;;4.70;99.90;;;;;;4959630;29;20168;-79
2020/12/03 03:15:07;;;;;;;1999.90;999.90;;;4.70;99.90;;;;;;4960766;29;20188;-79
2020/12/03 03:17:33;;;;;;;1999.90;999.90;;;4.70;99.90;;;;;;4960164;29;20412;-79
2020/12/03 03:19:59;;;;;;;1999.90;999.90;;;4.70;99.90;;;;;;4960029;29;20259;-79
2020/12/03 03:22:51;;;;;;;1999.90;999.90;;;4.70;99.90;;;;;;4960007;29;20168;-79
2020/12/03 03:25:16;;;;;;;1999.90;999.90;;;4.70;99.90;;;;;;4956583;29;20234;-79
2020/12/03 03:27:42;;;;;;;1999.90;999.90;;;4.70;99.90;;;;;;4959445;29;20156;-79
2020/12/03 03:30:08;;;;;;;1999.90;999.90;;;4.60;99.90;;;;;;4959671;29;20179;-79
2020/12/03 03:32:34;;;;;;;1999.90;999.90;;;4.60;99.90;;;;;;4959468;29;20544;-79
2020/12/03 03:35:01;;;;;;;1999.90;999.90;;;4.60;99.90;;;;;;4960102;29;20227;-79
2020/12/03 03:37:27;;;;;;;1999.90;999.90;;;4.60;99.90;;;;;;4959702;29;20228;-79
2020/12/03 03:39:53;;;;;;;1999.90;999.90;;;4.60;99.90;;;;;;4959712;29;20160;-79
2020/12/03 03:42:18;;;;;;;1999.90;999.90;;;4.60;99.90;;;;;;4959603;29;20171;-79
2020/12/03 03:45:10;;;;;;;1999.90;999.90;;;4.60;99.90;;;;;;4959085;29;20411;-79
2020/12/03 03:48:02;;;;;;;1999.90;999.90;;;4.70;99.90;;;;;;4911991;29;20573;-79
2020/12/03 03:50:48;;;;;;;1999.90;999.90;;;4.80;99.90;;;;;;4916714;29;20312;-79
2020/12/03 03:53:19;;;;;;;1999.90;999.90;;;4.70;99.90;;;;;;4919292;29;20609;-79
2020/12/03 03:55:45;;;;;;;1999.90;999.90;;;4.70;99.90;;;;;;4929634;29;20825;-79
2020/12/03 03:58:11;;;;;;;1999.90;999.90;;;4.70;99.90;;;;;;4959591;29;20180;-79
2020/12/03 04:00:44;;;;;;;1999.90;999.90;;;4.80;99.90;;;;;;4942276;29;20172;-79
2020/12/03 04:03:13;;;;;;;1999.90;999.90;;;4.80;99.90;;;;;;4959351;29;20175;-79
2020/12/03 04:05:47;;;;;;;1999.90;999.90;;;4.80;99.90;;;;;;4942268;29;20168;-80
2020/12/03 04:08:15;;;;;;;1999.90;999.90;;;4.80;99.90;;;;;;4959574;29;20538;-79
2020/12/03 04:10:42;;;;;;;1999.90;999.90;;;4.70;99.90;;;;;;4941966;29;20222;-79
2020/12/03 04:13:08;;;;;;;1999.90;999.90;;;4.70;99.90;;;;;;4959104;29;20239;-79
2020/12/03 04:15:33;;;;;;;1999.90;999.90;;;4.70;99.90;;;;;;4941532;29;20168;-79
2020/12/03 04:17:59;;;;;;;1999.90;999.90;;;4.80;99.90;;;;;;4959254;29;20174;-80
2020/12/03 04:20:24;;;;;;;1999.90;999.90;;;4.70;99.90;;;;;;4959055;29;20216;-79
2020/12/03 04:22:50;;;;;;;1999.90;999.90;;;4.70;99.90;;;;;;4958168;28;20176;-79
2020/12/03 04:25:16;;;;;;;1999.90;999.90;;;4.70;99.90;;;;;;4958717;29;20211;-79
2020/12/03 04:27:42;;;;;;;1999.90;999.90;;;4.70;99.90;;;;;;4958408;29;20153;-79
2020/12/03 04:30:08;;;;;;;1999.90;999.90;;;4.60;99.90;;;;;;4958846;29;20169;-80
2020/12/03 04:32:35;;;;;;;1999.90;999.90;;;4.60;99.90;;;;;;4958527;29;20446;-79
2020/12/03 04:35:01;;;;;;;1999.90;999.90;;;4.70;99.90;;;;;;4958324;29;20584;-79
2020/12/03 04:37:26;;;;;;;1999.90;999.90;;;4.70;99.90;;;;;;4958467;29;20196;-79
2020/12/03 04:39:52;;;;;;;1999.90;999.90;;;4.60;99.90;;;;;;4959270;29;20935;-79
2020/12/03 04:42:30;;;;;;;1999.90;999.90;;;4.60;99.90;;;;;;4941859;29;20214;-79
2020/12/03 04:45:28;;;;;;;1999.90;999.90;;;4.60;99.90;;;;;;4958826;29;20166;-79
2020/12/03 04:48:39;;;;;;;1999.90;999.90;;;4.60;99.90;;;;;;4957841;29;20263;-80
2020/12/03 04:51:32;;;;;;;1999.90;999.90;;;4.60;99.90;;;;;;4958077;29;20267;-79
2020/12/03 04:54:13;;;;;;;1999.90;999.90;;;4.60;99.90;;;;;;4958738;29;20176;-79
2020/12/03 04:57:05;;;;;;;1999.90;999.90;;;4.60;99.90;;;;;;4958387;29;20152;-80
2020/12/03 04:59:54;;;;;;;1999.90;999.90;;;4.60;99.90;;;;;;4941344;29;20624;-79
2020/12/03 05:02:29;;;;;;;1999.90;999.90;;;4.60;99.90;;;;;;4941181;29;20659;-80
2020/12/03 05:05:13;;;;;;;1999.90;999.90;;;4.60;99.90;;;;;;4958020;29;20162;-79
2020/12/03 05:07:40;;;;;;;1999.90;999.90;;;4.60;99.90;;;;;;4940617;29;20168;-79
2020/12/03 05:10:26;;;;;;;1999.90;999.90;;;4.60;99.90;;;;;;4958182;29;20640;-79
2020/12/03 05:12:52;;;;;;;1999.90;999.90;;;4.60;99.90;;;;;;4958652;29;20152;-80
2020/12/03 05:15:24;;;;;;;1999.90;999.90;;;4.50;99.90;;;;;;4958033;29;20575;-80
2020/12/03 05:18:05;;;;;;;1999.90;999.90;;;4.60;99.90;;;;;;4958123;29;20156;-79
2020/12/03 05:20:42;;;;;;;1999.90;999.90;;;4.60;99.90;;;;;;4957992;29;20616;-79
2020/12/03 05:23:19;;;;;;;1999.90;999.90;;;4.50;99.90;;;;;;4958329;29;20156;-79
2020/12/03 05:25:47;;;;;;;1999.90;999.90;;;4.60;99.90;;;;;;4957811;29;20731;-79
2020/12/03 05:28:46;;;;;;;1999.90;999.90;;;4.60;99.90;;;;;;4957427;29;20202;-79
2020/12/03 05:31:17;;;;;;;1999.90;999.90;;;4.60;99.90;;;;;;4940382;29;20191;-80
2020/12/03 05:33:44;;;;;;;1999.90;999.90;;;4.60;99.90;;;;;;4940650;29;20208;-79
2020/12/03 05:36:34;;;;;;;1999.90;999.90;;;4.60;99.90;;;;;;4940879;29;20172;-79
2020/12/03 05:39:05;;;;;;;1999.90;999.90;;;4.60;99.90;;;;;;4958023;29;20167;-80
2020/12/03 05:41:35;;;;;;;1999.90;999.90;;;4.60;99.90;;;;;;4957803;29;20160;-79
2020/12/03 05:44:06;;;;;;;1999.90;999.90;;;4.50;99.90;;;;;;4958039;29;20504;-79
2020/12/03 05:46:33;;;;;;;1999.90;999.90;;;4.50;99.90;;;;;;4958053;29;20224;-79
2020/12/03 05:49:05;;;;;;;1999.90;999.90;;;4.50;99.90;;;;;;4958340;29;20682;-80
2020/12/03 05:51:33;;;;;;;1999.90;999.90;;;4.50;99.90;;;;;;4958252;29;20216;-79
2020/12/03 05:54:03;;;;;;;1999.90;999.90;;;4.50;99.90;;;;;;4940613;29;20600;-79
2020/12/03 05:56:31;;;;;;;1999.90;999.90;;;4.40;99.90;;;;;;4958506;29;20152;-79
2020/12/03 05:59:18;;;;;;;1999.90;999.90;;;4.40;99.90;;;;;;4957426;29;20175;-79
2020/12/03 06:02:03;;;;;;;1999.90;999.90;;;4.40;99.90;;;;;;4959123;29;20180;-79
2020/12/03 06:04:48;;;;;;;1999.90;999.90;;;4.40;99.90;;;;;;4941528;29;20164;-80
2020/12/03 06:07:24;;;;;;;1999.90;999.90;;;4.40;99.90;;;;;;4958687;29;20243;-79
2020/12/03 06:10:17;;;;;;;1999.90;999.90;;;4.40;99.90;;;;;;4958913;29;20160;-79
2020/12/03 06:13:26;;;;;;;1999.90;999.90;;;4.40;99.90;;;;;;4958233;29;20149;-79
2020/12/03 06:16:07;;;;;;;1999.90;999.90;;;4.40;99.90;;;;;;4958293;29;20149;-80
2020/12/03 06:19:12;;;;;;;1999.90;999.90;;;4.40;99.90;;;;;;4957882;29;20176;-79
2020/12/03 06:21:51;;;;;;;1999.90;999.90;;;4.40;99.90;;;;;;4938252;29;20660;-79
2020/12/03 06:24:25;;;;;;;1999.90;999.90;;;4.40;99.90;;;;;;4959026;29;20161;-79
2020/12/03 06:27:16;;;;;;;1999.90;999.90;;;4.40;99.90;;;;;;4959098;29;20191;-79
2020/12/03 06:30:21;;;;;;;1999.90;999.90;;;4.40;99.90;;;;;;4961162;29;20172;-79
2020/12/03 06:33:08;;;;;;;1999.90;999.90;;;4.40;99.90;;;;;;4955286;29;20152;-79
2020/12/03 06:35:48;;;;;;;1999.90;999.90;;;4.40;99.90;;;;;;4948012;29;20671;-79
2020/12/03 06:38:39;;;;;;;1999.90;999.90;;;4.40;99.90;;;;;;4957728;29;20239;-79
2020/12/03 06:41:19;;;;;;;1999.90;999.90;;;4.50;99.90;;;;;;4958232;29;20160;-79
2020/12/03 06:43:55;;;;;;;1999.90;999.90;;;4.50;99.90;;;;;;4957512;29;20249;-79
2020/12/03 06:46:42;;;;;;;1999.90;999.90;;;4.50;99.90;;;;;;4942436;29;20199;-79
2020/12/03 06:49:20;;;;;;;1999.90;999.90;;;4.50;99.90;;;;;;4960667;29;20190;-79
2020/12/03 06:52:16;;;;;;;1999.90;999.90;;;4.50;99.90;;;;;;4961393;29;20188;-79
2020/12/03 06:54:59;;;;;;;1999.90;999.90;;;4.50;99.90;;;;;;4961443;29;20148;-79
2020/12/03 06:57:39;;;;;;;1999.90;999.90;;;4.40;99.90;;;;;;4944120;29;20167;-79
2020/12/03 07:00:42;;;;;;;1999.90;999.90;;;4.40;99.90;;;;;;4960856;29;20148;-80
2020/12/03 07:03:31;;;;;;;1999.90;999.90;;;4.40;99.90;;;;;;4924513;29;20208;-79
2020/12/03 07:06:18;;;;;;;1999.90;999.90;;;4.40;99.90;;;;;;4960784;29;20198;-79
2020/12/03 07:09:00;;;;;;;1999.90;999.90;;;4.40;99.90;;;;;;4961332;29;20214;-79
2020/12/03 07:11:53;;;;;;;1999.90;999.90;;;4.40;99.90;;;;;;4960596;29;20212;-80
2020/12/03 07:15:03;;;;;;;1999.90;999.90;;;4.40;99.90;;;;;;4960692;29;20259;-79
2020/12/03 07:18:05;;;;;;;1999.90;999.90;;;4.40;99.90;;;;;;4959985;29;20172;-79
2020/12/03 07:21:27;;;;;;;1999.90;999.90;;;4.40;99.90;;;;;;4961022;29;20201;-80
2020/12/03 07:24:31;;;;;;;1999.90;999.90;;;4.40;99.90;;;;;;4863842;29;20426;-80
2020/12/03 07:27:06;;;;;;;1999.90;999.90;;;4.50;99.90;;;;;;4828083;29;20196;-80
2020/12/03 07:29:43;;;;;;;1999.90;999.90;;;4.40;99.90;;;;;;4927284;29;20182;-80
2020/12/03 07:32:39;;;;;;;1999.90;999.90;;;4.50;99.90;;;;;;4943244;29;20236;-80
2020/12/03 07:35:18;;;;;;;1999.90;999.90;;;4.50;99.90;;;;;;4911661;29;20180;-80
2020/12/03 07:37:52;;;;;;;1999.90;999.90;;;4.50;99.90;;;;;;4960485;29;20176;-80
2020/12/03 07:40:21;;;;;;;1999.90;999.90;;;4.50;99.90;;;;;;4960183;29;20156;-80
2020/12/03 07:42:47;;;;;;;1999.90;999.90;;;4.60;99.90;;;;;;4942621;29;20164;-79
2020/12/03 07:45:42;;;;;;;1999.90;999.90;;;4.60;99.90;;;;;;4960257;29;20232;-78
2020/12/03 07:48:19;;;;;;;1999.90;999.90;;;4.60;99.90;;;;;;4959986;29;20152;-80
2020/12/03 07:50:50;;;;;;;1999.90;999.90;;;4.50;99.90;;;;;;4943414;29;20187;-80
2020/12/03 07:53:23;;;;;;;1999.90;999.90;;;4.50;99.90;;;;;;4961021;29;20151;-80
2020/12/03 07:55:50;;;;;;;1999.90;999.90;;;4.40;99.90;;;;;;4960509;29;20672;-78
2020/12/03 07:58:32;;;;;;;1999.90;999.90;;;4.40;99.90;;;;;;4959338;28;20156;-78
2020/12/03 08:00:59;;;;;;;1999.90;999.90;;;4.40;99.90;;;;;;4942933;29;20655;-78
2020/12/03 08:03:43;;;;;;;1999.90;999.90;;;4.30;99.90;;;;;;4942160;29;20720;-76
2020/12/03 08:06:20;;;;;;;1999.90;999.90;;;4.40;99.90;;;;;;4959297;29;20199;-77
2020/12/03 08:08:50;;;;;;;1999.90;999.90;;;4.40;99.90;;;;;;4959319;29;20187;-78
2020/12/03 08:14:38;;;;;;;1999.90;999.90;;;4.50;99.90;;;;;;4977932;28;20235;-84
2020/12/03 08:17:27;;;;;;;1999.90;999.90;;;4.50;99.90;;;;;;4980265;28;20665;-84
2020/12/03 08:20:06;;;;;;;1999.90;999.90;;;4.50;99.90;;;;;;4942218;28;20591;-85
2020/12/03 08:23:35;;;;;;;1999.90;999.90;;;4.50;99.90;;;;;;4977491;28;20246;-84
2020/12/03 08:25:53;;;;;;;1999.90;999.90;;;4.60;99.90;;;;;;4969460;28;20203;-84
2020/12/03 08:31:48;;;;;;;1999.90;999.90;;;4.60;99.90;;;;;;4926360;28;20208;-84
2020/12/03 08:34:46;;;;;;;1999.90;999.90;;;4.60;99.90;;;;;;4958116;28;20160;-84
2020/12/03 08:37:22;;;;;;;1999.90;999.90;;;4.60;99.90;;;;;;4978777;28;20168;-85
2020/12/03 08:40:27;;;;;;;1999.90;999.90;;;4.60;99.90;;;;;;4980256;28;20512;-84
2020/12/03 08:42:53;;;;;;;1999.90;999.90;;;4.60;99.90;;;;;;4979488;28;20171;-84
2020/12/03 08:45:25;;;;;;;1999.90;999.90;;;4.70;99.90;;;;;;4962565;28;20167;-85
2020/12/03 08:47:53;;;;;;;1999.90;999.90;;;4.60;99.90;;;;;;4979574;28;20148;-85
2020/12/03 08:50:22;;;;;;;1999.90;999.90;;;4.60;99.90;;;;;;4963274;28;20507;-84
2020/12/03 08:52:51;;;;;;;1999.90;999.90;;;4.70;99.90;;;;;;4962099;28;20210;-84
2020/12/03 08:55:26;;;;;;;1999.90;999.90;;;4.70;99.90;;;;;;4979327;28;20195;-84
2020/12/03 08:58:09;;;;;;;1999.90;999.90;;;4.60;99.90;;;;;;4978768;28;20154;-84
2020/12/03 09:00:52;;;;;;;1999.90;999.90;;;4.70;99.90;;;;;;4979655;28;20151;-84
2020/12/03 09:03:40;;;;;;;1999.90;999.90;;;4.70;99.90;;;;;;4959357;28;20191;-83
2020/12/03 09:06:13;;;;;;;1999.90;999.90;;;4.70;99.90;;;;;;4975556;28;20188;-84
2020/12/03 09:09:06;;;;;;;;;;;;;;;;;;;;;
2020/12/03 09:18:29;;;;;;;1999.90;999.90;;;4.80;99.90;;;;;;4863615;29;20588;-85
2020/12/03 09:25:07;;;;;;;;;;;;;;;;;;;;;
2020/12/03 09:28:01;;;;;;;;;;;;;;;;;;;;;
2020/12/03 09:31:43;;;;;;;1999.90;999.90;;;4.80;99.90;;;;;;4898400;29;20682;-84
2020/12/03 09:52:27;;;;;;;1999.90;999.90;;;5.20;99.90;;;;;;4878184;29;20206;-84
2020/12/03 09:58:48;;;;;;;1999.90;999.90;;;5.20;99.90;;;;;;4917151;29;20184;-85
2020/12/03 10:09:34;;;;;;;;;;;;;;;;;;;;;
2020/12/03 10:12:51;;;;;;;1999.90;999.90;;;5.60;99.90;;;;;;4860477;29;20215;-85
2020/12/03 10:30:28;;;;;;;;;;;;;;;;;;;;;
2020/12/03 10:33:00;;;;;;;1999.90;999.90;;;5.60;99.90;;;;;;4965812;28;20217;-84
2020/12/03 10:35:28;;;;;;;1999.90;999.90;;;5.60;99.90;;;;;;4979273;28;20230;-84
2020/12/03 10:37:57;;;;;;;1999.90;999.90;;;5.50;99.90;;;;;;4978591;28;20163;-83
2020/12/03 10:40:34;;;;;;;1999.90;999.90;;;5.40;99.90;;;;;;4978695;28;20250;-84
2020/12/03 10:43:04;;;;;;;1999.90;999.90;;;5.50;99.90;;;;;;4979094;28;20147;-84
2020/12/03 10:45:35;;;;;;;1999.90;999.90;;;5.60;99.90;;;;;;4979289;28;20162;-84
2020/12/03 10:48:09;;;;;;;1999.90;999.90;;;5.60;99.90;;;;;;4978884;28;20637;-83
2020/12/03 10:50:47;;;;;;;1999.90;999.90;;;5.50;99.90;;;;;;4961684;28;20171;-84
2020/12/03 10:53:16;;;;;;;1999.90;999.90;;;5.50;99.90;;;;;;4978074;28;20246;-83
2020/12/03 10:55:43;;;;;;;1999.90;999.90;;;5.50;99.90;;;;;;4979137;28;20163;-84
2020/12/03 10:58:13;;;;;;;1999.90;999.90;;;5.60;99.90;;;;;;4961909;28;20175;-84
2020/12/03 11:00:42;;;;;;;1999.90;999.90;;;5.60;99.90;;;;;;4961561;28;20175;-84
2020/12/03 11:03:15;;;;;;;1999.90;999.90;;;5.50;99.90;;;;;;4978591;28;20635;-83
2020/12/03 11:05:50;;;;;;;1999.90;999.90;;;5.60;99.90;;;;;;4946038;28;20238;-83
2020/12/03 11:08:22;;;;;;;1999.90;999.90;;;5.60;99.90;;;;;;4978947;28;20194;-83
2020/12/03 11:11:13;;;;;;;1999.90;999.90;;;5.70;99.90;;;;;;4978221;28;20634;-83
2020/12/03 11:13:42;;;;;;;1999.90;999.90;;;5.70;99.90;;;;;;4978223;28;20179;-84
2020/12/03 11:16:10;;;;;;;1999.90;999.90;;;5.70;99.90;;;;;;4961739;28;20194;-83
2020/12/03 11:18:49;;;;;;;1999.90;999.90;;;5.70;99.90;;;;;;4980793;28;20174;-84
2020/12/03 11:21:27;;;;;;;1999.90;999.90;;;5.60;99.90;;;;;;4963280;28;20182;-84
2020/12/03 11:24:34;;;;;;;1999.90;999.90;;;5.50;99.90;;;;;;4963504;28;20175;-83
2020/12/03 11:27:05;;;;;;;1999.90;999.90;;;5.60;99.90;;;;;;4979223;28;20234;-83
2020/12/03 11:29:38;;;;;;;1999.90;999.90;;;5.50;99.90;;;;;;4960859;28;20175;-83
2020/12/03 11:32:04;;;;;;;1999.90;999.90;;;5.50;99.90;;;;;;4977486;28;20207;-83
2020/12/03 11:34:37;;;;;;;1999.90;999.90;;;5.60;99.90;;;;;;4960900;28;20167;-84
2020/12/03 11:37:04;;;;;;;1999.90;999.90;;;5.70;99.90;;;;;;4980100;28;20702;-83
2020/12/03 11:39:31;;;;;;;1999.90;999.90;;;5.70;99.90;;;;;;4980334;28;20159;-84
2020/12/03 11:50:20;;;;;;;1999.90;999.90;;;5.80;99.90;;;;;;4979826;28;20162;-85
2020/12/03 11:52:49;;;;;;;1999.90;999.90;;;5.70;99.90;;;;;;4963218;28;20190;-84
2020/12/03 11:55:18;;;;;;;1999.90;999.90;;;5.70;99.90;;;;;;4980720;28;20163;-84
2020/12/03 11:57:44;;;;;;;1999.90;999.90;;;5.70;99.90;;;;;;4980523;28;20254;-84
2020/12/03 12:00:48;;;;;;;;;;;;;;;;;;;;;
2020/12/03 12:03:45;;;;;;;1999.90;999.90;;;5.70;99.90;;;;;;4978927;28;20411;-83
2020/12/03 12:10:02;;;;;;;1999.90;999.90;;;6.00;99.90;;;;;;4979504;28;20150;-83
2020/12/03 12:12:52;;;;;;;1999.90;999.90;;;6.20;99.90;;;;;;4979514;28;20191;-84
2020/12/03 12:15:18;;;;;;;1999.90;999.90;;;6.10;99.90;;;;;;4965149;28;20655;-84
2020/12/03 12:17:44;;;;;;;1999.90;999.90;;;6.30;99.90;;;;;;4986107;28;20215;-85
2020/12/03 12:20:13;;;;;;;1999.90;999.90;;;6.10;99.90;;;;;;4984834;28;20147;-84
2020/12/03 12:22:47;;;;;;;1999.90;999.90;;;6.00;99.90;;;;;;4967528;28;20406;-85
2020/12/03 12:29:05;;;;;;;;;;;;;;;;;;;;;
2020/12/03 12:35:57;;;;;;;1999.90;999.90;;;6.40;99.90;;;;;;4826471;29;20244;-84
2020/12/03 12:38:30;;;;;;;1999.90;999.90;;;6.50;99.90;;;;;;4829483;29;20771;-85
2020/12/03 12:41:02;;;;;;;1999.90;999.90;;;6.40;99.90;;;;;;4833198;29;20207;-85
2020/12/03 12:43:56;;;;;;;1999.90;999.90;;;6.50;99.90;;;;;;4882667;29;20182;-86
2020/12/03 12:46:25;;;;;;;1999.90;999.90;;;6.50;99.90;;;;;;4982460;28;20186;-86
2020/12/03 12:48:55;;;;;;;1999.90;999.90;;;6.50;99.90;;;;;;4984904;28;20181;-86
2020/12/03 12:51:21;;;;;;;1999.90;999.90;;;6.40;99.90;;;;;;4967271;28;20234;-85
2020/12/03 12:53:52;;;;;;;1999.90;999.90;;;6.40;99.90;;;;;;4985327;28;20194;-86
2020/12/03 12:56:28;;;;;;;1999.90;999.90;;;6.40;99.90;;;;;;4967620;28;20210;-85
2020/12/03 12:58:59;;;;;;;1999.90;999.90;;;6.40;99.90;;;;;;4967182;28;20171;-86
2020/12/03 13:01:25;;;;;;;1999.90;999.90;;;6.50;99.90;;;;;;4967334;28;20186;-86
2020/12/03 13:03:54;;;;;;;1999.90;999.90;;;6.50;99.90;;;;;;4967289;28;20175;-86
2020/12/03 13:06:22;;;;;;;1999.90;999.90;;;6.60;99.90;;;;;;4967031;28;20199;-85
2020/12/03 13:08:57;;;;;;;1999.90;999.90;;;6.50;99.90;;;;;;4984514;28;20754;-86
2020/12/03 13:11:23;;;;;;;1999.90;999.90;;;6.40;99.90;;;;;;4967202;28;20186;-86
2020/12/03 13:13:49;;;;;;;1999.90;999.90;;;6.40;99.90;;;;;;4983257;28;20163;-86
2020/12/03 13:16:21;;;;;;;1999.90;999.90;;;6.50;99.90;;;;;;4982850;28;20258;-86
2020/12/03 13:19:28;;;;;;;1999.90;999.90;;;6.50;99.90;;;;;;4963805;28;20230;-86
2020/12/03 13:22:00;;;;;;;1999.90;999.90;;;6.60;99.90;;;;;;4983121;28;20163;-86
2020/12/03 13:24:33;;;;;;;1999.90;999.90;;;6.60;99.90;;;;;;4983741;28;20151;-86
2020/12/03 13:27:05;;;;;;;1999.90;999.90;;;6.60;99.90;;;;;;4982965;28;20171;-86
2020/12/03 13:30:03;;;;;;;;;;;;;;;;;;;;;
2020/12/03 13:32:36;;;;;;;1999.90;999.90;;;6.50;99.90;;;;;;4983151;28;20274;-86
2020/12/03 13:37:58;;;;;;;1999.90;999.90;;;6.60;99.90;;;;;;4980198;28;20230;-86
2020/12/03 13:40:33;;;;;;;1999.90;999.90;;;6.50;99.90;;;;;;4983503;28;20214;-86
2020/12/03 13:43:07;;;;;;;1999.90;999.90;;;6.40;99.90;;;;;;4982564;28;20623;-86
2020/12/03 13:48:34;;;;;;;1999.90;999.90;;;6.40;99.90;;;;;;4973872;28;20225;-86
2020/12/03 13:51:27;;;;;;;1999.90;999.90;;;6.30;99.90;;;;;;4982174;28;20198;-86
2020/12/03 13:54:42;;;;;;;1999.90;999.90;;;6.30;99.90;;;;;;4982911;28;20152;-86
2020/12/03 13:57:41;;;;;;;1999.90;999.90;;;6.30;99.90;;;;;;4968685;28;20170;-86
2020/12/03 14:10:13;;;;;;;1999.90;999.90;;;6.40;99.90;;;;;;4904087;29;20184;-86
2020/12/03 14:15:36;;;;;;;1999.90;999.90;;;6.40;99.90;;;;;;5063686;23;20646;-80
2020/12/03 14:18:02;;;;;;;1999.90;999.90;;;6.30;99.90;;;;;;4972378;28;20171;-80
2020/12/03 14:20:28;;;;;;;1999.90;999.90;;;6.30;99.90;;;;;;4981681;28;20399;-80
2020/12/03 14:22:53;;;;;;;1999.90;999.90;;;6.30;99.90;;;;;;4981990;28;20167;-81
2020/12/03 14:25:19;;;;;;;1999.90;999.90;;;6.20;99.90;;;;;;4980074;28;20590;-80
2020/12/03 14:27:46;;;;;;;1999.90;999.90;;;6.30;99.90;;;;;;4980871;28;20163;-81
2020/12/03 14:30:17;;;;;;;1999.90;999.90;;;6.20;99.90;;;;;;4981700;28;20171;-80
2020/12/03 14:32:43;;;;;;;1999.90;999.90;;;6.20;99.90;;;;;;4981963;28;20179;-80
2020/12/03 14:35:09;;;;;;;1999.90;999.90;;;6.10;99.90;;;;;;4981134;28;20166;-80
2020/12/03 14:37:38;;;;;;;1999.90;999.90;;;6.10;99.90;;;;;;4981393;28;20399;-81
2020/12/03 14:40:09;;;;;;;1999.90;999.90;;;6.20;99.90;;;;;;4981566;28;20611;-80
2020/12/03 14:42:36;;;;;;;1999.90;999.90;;;6.10;99.90;;;;;;4981393;28;20164;-80
2020/12/03 14:45:07;;;;;;;1999.90;999.90;;;6.10;99.90;;;;;;4973814;28;20191;-81